createdAt,value
2017-09-27T00:01:07.868Z,16.66
2017-09-27T00:03:39.494Z,16.85
2017-09-27T00:06:11.351Z,16.63
2017-09-27T00:08:43.032Z,16.70
2017-09-27T00:11:16.838Z,16.27
2017-09-27T00:13:56.598Z,16.33
2017-09-27T00:16:27.582Z,15.82
2017-09-27T00:18:58.802Z,15.76
2017-09-27T00:21:32.961Z,15.82
2017-09-27T00:24:05.568Z,15.87
2017-09-27T00:26:39.640Z,15.56
2017-09-27T00:29:12.317Z,15.64
2017-09-27T00:31:44.173Z,15.53
2017-09-27T00:36:10.324Z,15.54
2017-09-27T00:38:43.495Z,15.44
2017-09-27T00:41:16.991Z,15.09
2017-09-27T00:46:49.152Z,15.10
2017-09-27T00:49:20.711Z,15.11
2017-09-27T00:51:51.805Z,14.99
2017-09-27T00:54:24.241Z,15.25
2017-09-27T00:56:59.126Z,15.41
2017-09-27T00:59:34.321Z,15.41
2017-09-27T01:02:11.091Z,15.38
2017-09-27T01:04:45.086Z,15.46
2017-09-27T01:07:18.593Z,15.42
2017-09-27T01:09:52.977Z,15.29
2017-09-27T01:12:24.923Z,15.16
2017-09-27T01:14:57.626Z,15.10
2017-09-27T01:17:28.968Z,15.07
2017-09-27T01:20:01.797Z,15.10
2017-09-27T01:22:35.270Z,15.10
2017-09-27T01:25:08.258Z,14.73
2017-09-27T01:27:40.344Z,14.77
2017-09-27T01:30:13.984Z,14.83
2017-09-27T01:32:46.568Z,14.61
2017-09-27T01:35:18.857Z,14.90
2017-09-27T01:37:51.290Z,15.02
2017-09-27T01:40:24.838Z,15.09
2017-09-27T01:42:56.822Z,15.21
2017-09-27T01:45:29.421Z,15.13
2017-09-27T01:48:02.440Z,15.21
2017-09-27T01:50:36.855Z,15.30
2017-09-27T01:53:10.008Z,15.07
2017-09-27T01:55:43.490Z,14.84
2017-09-27T01:58:16.584Z,14.85
2017-09-27T02:00:50.530Z,15.13
2017-09-27T02:03:24.698Z,15.20
2017-09-27T02:05:58.834Z,15.32
2017-09-27T02:08:31.971Z,15.20
2017-09-27T02:11:06.036Z,15.20
2017-09-27T02:13:40.435Z,15.16
2017-09-27T02:16:14.208Z,15.19
2017-09-27T02:18:45.878Z,15.18
2017-09-27T02:21:17.510Z,15.14
2017-09-27T02:23:50.967Z,15.10
2017-09-27T02:26:23.510Z,15.21
2017-09-27T02:28:54.960Z,15.31
2017-09-27T02:31:27.046Z,15.09
2017-09-27T02:33:58.404Z,15.30
2017-09-27T02:36:29.262Z,15.44
2017-09-27T02:39:00.513Z,15.52
2017-09-27T02:41:31.037Z,15.65
2017-09-27T02:44:02.177Z,15.76
2017-09-27T02:46:34.084Z,15.95
2017-09-27T02:49:08.128Z,15.87
2017-09-27T02:51:41.750Z,15.69
2017-09-27T02:54:15.144Z,15.94
2017-09-27T02:56:50.042Z,15.83
2017-09-27T02:59:23.221Z,16.06
2017-09-27T03:01:56.907Z,16.03
2017-09-27T03:04:31.449Z,16.02
2017-09-27T03:07:04.284Z,15.68
2017-09-27T03:09:36.157Z,15.69
2017-09-27T03:12:13.182Z,16.06
2017-09-27T03:14:45.823Z,16.27
2017-09-27T03:17:19.323Z,16.15
2017-09-27T03:19:51.045Z,16.12
2017-09-27T03:22:23.292Z,15.93
2017-09-27T03:24:55.589Z,16.05
2017-09-27T03:27:28.675Z,15.50
2017-09-27T03:30:00.957Z,15.68
2017-09-27T03:32:34.362Z,15.81
2017-09-27T03:35:08.236Z,15.63
2017-09-27T03:37:41.341Z,15.81
2017-09-27T03:40:14.480Z,15.85
2017-09-27T03:42:47.946Z,15.65
2017-09-27T03:45:21.841Z,15.50
2017-09-27T03:47:54.685Z,15.54
2017-09-27T03:50:27.554Z,15.61
2017-09-27T03:53:01.556Z,15.44
2017-09-27T03:55:34.910Z,15.56
2017-09-27T03:58:08.980Z,15.78
2017-09-27T04:00:42.910Z,15.74
2017-09-27T04:03:16.250Z,15.79
2017-09-27T04:05:48.402Z,15.97
2017-09-27T04:08:20.193Z,16.15
2017-09-27T04:10:51.806Z,16.27
2017-09-27T04:13:23.236Z,16.52
2017-09-27T04:15:53.938Z,16.47
2017-09-27T04:18:26.616Z,16.43
2017-09-27T04:21:00.527Z,16.49
2017-09-27T04:23:34.350Z,16.05
2017-09-27T04:26:07.525Z,15.72
2017-09-27T04:28:40.992Z,15.84
2017-09-27T04:31:14.941Z,16.02
2017-09-27T04:33:49.203Z,15.42
2017-09-27T04:36:23.228Z,15.44
2017-09-27T04:38:56.067Z,15.49
2017-09-27T04:41:29.197Z,15.52
2017-09-27T04:44:00.840Z,15.52
2017-09-27T04:46:32.521Z,15.45
2017-09-27T04:49:04.356Z,15.32
2017-09-27T04:51:37.427Z,15.26
2017-09-27T04:54:08.864Z,15.22
2017-09-27T04:56:40.758Z,15.08
2017-09-27T04:59:14.461Z,14.79
2017-09-27T05:01:47.697Z,14.40
2017-09-27T05:04:20.940Z,14.52
2017-09-27T05:06:54.080Z,14.41
2017-09-27T05:09:26.993Z,14.40
2017-09-27T05:12:00.261Z,14.37
2017-09-27T05:14:33.742Z,14.32
2017-09-27T05:17:06.976Z,14.25
2017-09-27T05:19:41.098Z,13.93
2017-09-27T05:22:14.213Z,14.06
2017-09-27T05:24:48.792Z,14.00
2017-09-27T05:27:35.078Z,14.16
2017-09-27T05:30:07.904Z,14.19
2017-09-27T05:32:44.139Z,14.19
2017-09-27T05:35:16.775Z,14.20
2017-09-27T05:37:52.113Z,13.73
2017-09-27T05:40:24.558Z,13.45
2017-09-27T05:42:56.391Z,12.90
2017-09-27T05:45:29.567Z,13.65
2017-09-27T05:48:02.925Z,14.19
2017-09-27T05:50:35.500Z,14.27
2017-09-27T05:53:07.887Z,14.58
2017-09-27T05:55:40.943Z,14.60
2017-09-27T05:58:13.195Z,14.51
2017-09-27T06:00:48.371Z,14.61
2017-09-27T06:03:27.774Z,14.91
2017-09-27T06:06:00.705Z,14.67
2017-09-27T06:08:33.352Z,15.08
2017-09-27T06:11:09.677Z,15.36
2017-09-27T06:13:45.023Z,15.64
2017-09-27T06:16:17.352Z,15.86
2017-09-27T06:18:55.948Z,16.09
2017-09-27T06:21:29.593Z,16.07
2017-09-27T06:24:06.315Z,15.79
2017-09-27T06:26:40.662Z,15.81
2017-09-27T06:29:14.772Z,15.91
2017-09-27T06:31:46.290Z,15.87
2017-09-27T06:34:22.826Z,16.07
2017-09-27T06:36:57.630Z,16.21
2017-09-27T06:39:31.926Z,16.49
2017-09-27T06:42:05.732Z,16.75
2017-09-27T06:44:38.650Z,17.00
2017-09-27T06:47:12.039Z,17.25
2017-09-27T06:49:47.257Z,17.50
2017-09-27T06:52:22.595Z,17.70
2017-09-27T06:55:03.151Z,17.86
2017-09-27T06:57:37.827Z,18.24
2017-09-27T07:00:09.442Z,18.41
2017-09-27T07:02:52.618Z,18.74
2017-09-27T07:05:26.983Z,19.10
2017-09-27T07:08:05.703Z,19.43
2017-09-27T07:10:41.223Z,19.75
2017-09-27T07:13:24.036Z,19.80
2017-09-27T07:16:23.575Z,20.21
2017-09-27T07:19:12.854Z,20.60
2017-09-27T07:21:52.320Z,20.92
2017-09-27T07:24:34.577Z,21.24
2017-09-27T07:38:48.701Z,20.90
2017-09-27T07:52:42.370Z,20.45
2017-09-27T08:29:49.074Z,23.32
2017-09-27T08:32:27.256Z,22.75
2017-09-27T08:35:03.995Z,22.26
2017-09-27T08:37:41.949Z,22.42
2017-09-27T08:40:15.574Z,22.07
2017-09-27T08:43:05.260Z,21.67
2017-09-27T08:46:37.428Z,22.09
2017-09-27T08:49:14.040Z,21.80
2017-09-27T08:55:47.327Z,22.10
2017-09-27T08:58:58.155Z,22.03
2017-09-27T09:01:33.933Z,22.47
2017-09-27T09:05:55.397Z,22.08
2017-09-27T11:02:58.858Z,24.49
2017-09-27T11:05:40.202Z,24.72
2017-09-27T11:08:13.595Z,24.42
2017-09-27T11:11:05.750Z,24.66
2017-09-27T11:13:41.391Z,23.89
2017-09-27T11:16:22.457Z,23.77
2017-09-27T11:18:57.889Z,24.06
2017-09-27T11:22:17.562Z,24.61
2017-09-27T11:24:49.986Z,24.49
2017-09-27T11:27:26.942Z,24.55
2017-09-27T11:30:02.208Z,24.48
2017-09-27T11:32:34.831Z,24.56
2017-09-27T11:35:09.742Z,24.84
2017-09-27T11:37:47.432Z,25.15
2017-09-27T11:40:20.082Z,25.45
2017-09-27T11:42:52.559Z,25.38
2017-09-27T11:45:27.301Z,24.69
2017-09-27T11:48:07.724Z,25.12
2017-09-27T11:50:40.908Z,25.03
2017-09-27T11:53:13.939Z,25.00
2017-09-27T11:55:48.789Z,24.43
2017-09-27T11:58:22.181Z,24.35
2017-09-27T12:00:55.027Z,24.84
2017-09-27T12:03:27.739Z,24.28
2017-09-27T12:06:12.991Z,24.91
2017-09-27T12:08:45.236Z,24.31
2017-09-27T12:11:18.612Z,24.59
2017-09-27T12:13:55.577Z,24.06
